Terminal Aerodrome Forecast
Issued by NWS Tulsa, OK

Home | Current Version | Previous Version | Text Only | Print | Product List | Glossary Off
Versions: 1 2 3 4 5 6 7 8 9 10 11 12 13

000
FTUS44 KTSA 051125
TAFTUL
TAF
KTUL 051125Z 0512/0612 17007KT P6SM BKN100
      TEMPO 0516/0520 3SM TSRA BKN050CB
     FM052100 19009KT P6SM VCSH BKN250 PROB30 0521/0603 3SM TSRA
      BKN050CB
     FM060300 18007KT P6SM VCSH BKN250 PROB30 0603/0609 3SM -TSRA
      BKN050CB=

USA.gov is the U.S. government's official web portal to all federal, state and local government web resources and services.